Time;durP1;ratioP1;P1;durP2;ratioP2;P2;SDS_P1;SDS_P2;PMS_P1;PMS_P2;Temp;Humidity;BMP_temperature;BMP_pressure;BME280_temperature;BME280_humidity;BME280_pressure;Samples;Min_cycle;Max_cycle;Signal;HPM_P1;HPM_P2
2023/03/01 00:01:56;;;;;;;35.20;24.60;;;;;;;-1.90;100.00;98180.27;110187;1244;69242;-67
2023/03/01 00:04:27;;;;;;;42.30;25.90;;;;;;;-1.88;100.00;98184.67;110158;1245;69281;-67
2023/03/01 00:06:57;;;;;;;34.80;24.20;;;;;;;-1.84;100.00;98187.19;110176;1246;58869;-68
2023/03/01 00:09:26;;;;;;;38.90;26.70;;;;;;;-1.81;100.00;98184.94;110264;1245;58866;-67
2023/03/01 00:11:55;;;;;;;48.80;31.80;;;;;;;-1.83;100.00;98185.46;110176;1243;70587;-68
2023/03/01 00:14:24;;;;;;;37.30;27.30;;;;;;;-1.88;100.00;98184.33;110161;1243;69200;-67
2023/03/01 00:16:54;;;;;;;42.10;30.00;;;;;;;-1.97;100.00;98185.29;110105;1245;69287;-67
2023/03/01 00:19:24;;;;;;;39.10;27.60;;;;;;;-2.05;100.00;98181.60;110245;1241;58885;-68
2023/03/01 00:21:52;;;;;;;47.60;32.20;;;;;;;-2.09;100.00;98178.23;110207;1245;58801;-67
2023/03/01 00:24:22;;;;;;;43.80;29.70;;;;;;;-2.13;100.00;98176.73;110155;1244;70652;-67
2023/03/01 00:26:55;;;;;;;41.40;27.60;;;;;;;-2.14;100.00;98178.11;110161;1246;69249;-68
2023/03/01 00:29:25;;;;;;;40.30;27.00;;;;;;;-2.16;100.00;98175.58;110147;1246;69300;-66
2023/03/01 00:31:56;;;;;;;45.30;30.70;;;;;;;-2.17;100.00;98176.95;110132;1245;59002;-66
2023/03/01 00:34:26;;;;;;;49.80;29.10;;;;;;;-2.16;100.00;98173.69;110169;1246;59340;-67
2023/03/01 00:37:04;;;;;;;;;;;;;;;-2.14;100.00;98176.74;110193;1244;69837;-66
2023/03/01 00:39:34;;;;;;;43.70;27.20;;;;;;;-2.15;100.00;98175.56;110203;1244;69907;-66
2023/03/01 00:42:04;;;;;;;40.40;25.90;;;;;;;-2.16;100.00;98174.71;110167;1241;68503;-67
2023/03/01 00:44:35;;;;;;;40.00;27.60;;;;;;;-2.18;100.00;98172.00;110111;1245;58918;-67
2023/03/01 00:47:06;;;;;;;35.80;23.30;;;;;;;-2.19;100.00;98172.70;110176;1245;58869;-66
2023/03/01 00:49:36;;;;;;;33.60;25.20;;;;;;;-2.22;100.00;98174.27;110112;1243;70624;-66
2023/03/01 00:52:06;;;;;;;33.60;21.50;;;;;;;-2.25;100.00;98175.16;110133;1245;69056;-66
2023/03/01 00:54:36;;;;;;;41.40;25.40;;;;;;;-2.25;100.00;98179.09;110150;1244;68515;-66
2023/03/01 00:57:07;;;;;;;36.60;24.80;;;;;;;-2.23;100.00;98176.31;110130;1242;58905;-67
2023/03/01 00:59:37;;;;;;;34.20;23.40;;;;;;;-2.22;100.00;98181.42;110146;1245;58866;-67
2023/03/01 01:02:08;;;;;;;32.60;23.70;;;;;;;-2.23;100.00;98180.74;110113;1245;70632;-67
2023/03/01 01:04:38;;;;;;;34.90;24.10;;;;;;;-2.21;100.00;98180.58;110171;1241;69224;-67
2023/03/01 01:07:08;;;;;;;27.20;18.60;;;;;;;-2.18;100.00;98175.76;110157;1241;69715;-67
2023/03/01 01:09:39;;;;;;;30.20;20.10;;;;;;;-2.14;100.00;98174.17;110154;1241;58893;-67
2023/03/01 01:12:10;;;;;;;33.70;22.90;;;;;;;-2.11;100.00;98171.25;110144;1246;58949;-67
2023/03/01 01:14:41;;;;;;;35.90;24.20;;;;;;;-2.07;100.00;98167.80;110132;1241;69698;-67
2023/03/01 01:17:12;;;;;;;33.00;21.90;;;;;;;-2.03;100.00;98171.69;110166;1244;69667;-67
2023/03/01 01:19:43;;;;;;;28.00;19.30;;;;;;;-2.01;100.00;98169.27;110158;1242;68185;-67
2023/03/01 01:22:14;;;;;;;28.20;20.50;;;;;;;-1.98;100.00;98171.13;110165;1246;58944;-67
2023/03/01 01:24:45;;;;;;;41.90;26.00;;;;;;;-1.96;100.00;98167.16;110144;1244;58944;-66
2023/03/01 01:27:15;;;;;;;41.10;26.60;;;;;;;-1.96;100.00;98166.13;110174;1246;70625;-66
2023/03/01 01:29:45;;;;;;;;;;;;;;;-1.97;100.00;98162.23;110190;1241;68778;-67
2023/03/01 01:32:13;;;;;;;39.10;24.00;;;;;;;-1.98;100.00;98160.02;110133;1245;69219;-68
2023/03/01 01:34:46;;;;;;;37.30;22.50;;;;;;;-1.97;100.00;98158.63;110223;1244;58857;-67
2023/03/01 01:37:15;;;;;;;29.40;20.90;;;;;;;-1.94;100.00;98157.39;110205;1242;58936;-67
2023/03/01 01:39:44;;;;;;;28.80;21.50;;;;;;;-1.93;100.00;98158.61;110212;1241;70518;-66
2023/03/01 01:42:18;;;;;;;28.40;21.10;;;;;;;-1.92;100.00;98157.05;110139;1241;69054;-66
2023/03/01 01:44:48;;;;;;;30.80;22.20;;;;;;;-1.90;100.00;98162.31;110101;1244;69341;-66
2023/03/01 01:47:22;;;;;;;40.00;27.30;;;;;;;-1.87;100.00;98162.46;110080;1245;58982;-66
2023/03/01 01:49:56;;;;;;;37.60;25.40;;;;;;;-1.85;100.00;98157.30;110152;1243;58921;-66
2023/03/01 01:52:32;;;;;;;36.70;25.60;;;;;;;-1.80;100.00;98155.38;110150;1252;69664;-66
2023/03/01 01:55:12;;;;;;;31.30;23.50;;;;;;;-1.75;100.00;98152.07;110119;1245;69655;-66
2023/03/01 01:57:53;;;;;;;30.70;22.20;;;;;;;-1.71;100.00;98150.65;110062;1245;69179;-67
2023/03/01 02:00:26;;;;;;;35.80;24.60;;;;;;;-1.67;100.00;98151.45;110151;1245;58941;-66
2023/03/01 02:03:04;;;;;;;33.80;24.80;;;;;;;-1.62;100.00;98150.19;110086;1246;58866;-66
2023/03/01 02:05:46;;;;;;;39.20;26.00;;;;;;;-1.58;100.00;98148.77;110148;1241;69836;-66
2023/03/01 02:08:26;;;;;;;37.20;25.90;;;;;;;-1.52;100.00;98147.02;110129;1243;69736;-66
2023/03/01 02:10:59;;;;;;;34.40;22.50;;;;;;;-1.49;100.00;98143.86;110091;1245;69242;-66
2023/03/01 02:13:30;;;;;;;35.50;24.60;;;;;;;-1.46;100.00;98145.88;110124;1246;58871;-66
2023/03/01 02:16:11;;;;;;;32.90;22.80;;;;;;;-1.41;100.00;98140.69;110119;1243;58875;-66
2023/03/01 02:18:43;;;;;;;39.20;27.40;;;;;;;-1.36;100.00;98139.08;110149;1244;70491;-66
2023/03/01 02:21:29;;;;;;;32.40;22.70;;;;;;;-1.33;100.00;98137.17;110083;1245;69203;-68
2023/03/01 02:24:10;;;;;;;36.20;25.50;;;;;;;-1.31;100.00;98132.50;110128;1244;69724;-66
2023/03/01 02:26:50;;;;;;;33.70;22.60;;;;;;;-1.28;100.00;98135.73;110147;1249;58891;-66
2023/03/01 02:29:23;;;;;;;34.40;23.60;;;;;;;-1.25;100.00;98134.48;110133;1243;58853;-66
2023/03/01 02:31:56;;;;;;;34.20;25.20;;;;;;;-1.22;100.00;98134.95;110176;1244;70414;-66
2023/03/01 02:34:29;;;;;;;32.90;24.10;;;;;;;-1.20;100.00;98131.16;110171;1243;68748;-66
2023/03/01 02:37:09;;;;;;;41.40;27.80;;;;;;;-1.16;100.00;98130.59;110146;1246;68857;-66
2023/03/01 02:39:44;;;;;;;37.40;25.70;;;;;;;-1.14;100.00;98132.45;110091;1245;58943;-66
2023/03/01 02:42:22;;;;;;;39.90;26.50;;;;;;;-1.12;100.00;98127.96;110140;1243;58935;-66
2023/03/01 02:44:54;;;;;;;;;;;;;;;-1.09;100.00;98127.42;110160;1246;70545;-67
2023/03/01 02:47:23;;;;;;;32.80;23.50;;;;;;;-1.07;100.00;98133.37;110134;1247;68936;-66
2023/03/01 02:49:53;;;;;;;38.90;25.80;;;;;;;-1.06;100.00;98130.27;110124;1243;69883;-67
2023/03/01 02:52:43;;;;;;;40.10;26.30;;;;;;;-1.03;100.00;98127.48;110132;1242;58801;-67
2023/03/01 02:55:16;;;;;;;41.00;28.00;;;;;;;-1.00;100.00;98123.87;110088;1245;58897;-67
2023/03/01 02:57:51;;;;;;;42.70;28.30;;;;;;;-0.99;100.00;98119.04;109809;1242;69826;-67
2023/03/01 03:00:27;;;;;;;38.80;26.30;;;;;;;-0.96;100.00;98114.72;110122;1246;67766;-67
2023/03/01 03:02:57;;;;;;;35.20;22.70;;;;;;;-0.92;100.00;98118.09;110216;1246;69773;-68
2023/03/01 03:05:30;;;;;;;33.40;23.60;;;;;;;-0.89;100.00;98116.33;110246;1245;58969;-67
2023/03/01 03:08:02;;;;;;;35.20;24.20;;;;;;;-0.88;100.00;98117.34;110218;1245;58891;-67
2023/03/01 03:10:39;;;;;;;41.40;27.60;;;;;;;-0.86;100.00;98119.53;110126;1242;71539;-67
2023/03/01 03:13:14;;;;;;;34.40;23.40;;;;;;;-0.85;100.00;98116.42;110155;1245;69565;-68
2023/03/01 03:15:44;;;;;;;41.50;28.60;;;;;;;-0.83;100.00;98115.73;110090;1242;69235;-67
2023/03/01 03:18:16;;;;;;;;;;;;;;;-0.81;100.00;98113.45;110142;1243;58943;-67
2023/03/01 03:20:52;;;;;;;33.40;23.40;;;;;;;-0.80;100.00;98113.43;110139;1243;59286;-67
2023/03/01 03:23:23;;;;;;;37.30;25.90;;;;;;;-0.78;100.00;98112.21;110115;1243;70533;-67
2023/03/01 03:25:54;;;;;;;45.00;29.30;;;;;;;-0.77;100.00;98113.06;110155;1243;68615;-67
2023/03/01 03:28:23;;;;;;;39.90;26.90;;;;;;;-0.80;100.00;98109.33;110128;1245;69110;-67
2023/03/01 03:30:53;;;;;;;;;;;;;;;-0.81;100.00;98108.50;110117;1247;59346;-67
2023/03/01 03:33:23;;;;;;;35.60;25.10;;;;;;;-0.81;100.00;98107.81;110124;1245;58946;-67
2023/03/01 03:35:52;;;;;;;;;;;;;;;-0.80;100.00;98107.95;110131;1245;70674;-67
2023/03/01 03:38:23;;;;;;;38.50;26.00;;;;;;;-0.78;100.00;98106.56;110140;1242;68502;-67
2023/03/01 03:41:04;;;;;;;38.30;25.90;;;;;;;-0.77;100.00;98106.71;110155;1241;68538;-68
2023/03/01 03:43:37;;;;;;;35.30;23.80;;;;;;;-0.77;100.00;98108.60;110117;1243;58866;-67
2023/03/01 03:46:07;;;;;;;39.40;27.60;;;;;;;-0.74;100.00;98109.08;110146;1241;58858;-67
2023/03/01 03:48:45;;;;;;;33.40;24.50;;;;;;;-0.74;100.00;98109.41;110152;1243;70130;-67
2023/03/01 03:51:16;;;;;;;32.40;22.60;;;;;;;-0.75;100.00;98107.36;110192;1244;68295;-67
2023/03/01 03:53:46;;;;;;;33.20;23.30;;;;;;;-0.74;100.00;98104.61;110206;1245;69285;-67
2023/03/01 03:56:14;;;;;;;37.10;26.10;;;;;;;-0.71;100.00;98104.40;110187;1243;58941;-67
2023/03/01 03:58:44;;;;;;;43.80;27.70;;;;;;;-0.67;100.00;98103.98;110210;1246;58943;-67
2023/03/01 04:01:15;;;;;;;35.40;26.90;;;;;;;-0.66;100.00;98099.15;110205;1245;70594;-67
2023/03/01 04:03:46;;;;;;;38.50;29.00;;;;;;;-0.64;100.00;98096.75;110178;1244;69796;-67
2023/03/01 04:06:16;;;;;;;36.00;26.20;;;;;;;-0.65;100.00;98101.54;110107;1241;69343;-67
2023/03/01 04:08:46;;;;;;;39.80;28.90;;;;;;;-0.67;100.00;98100.20;110148;1241;58931;-67
2023/03/01 04:11:28;;;;;;;40.40;27.70;;;;;;;-0.67;100.00;98105.19;110125;1243;58955;-67
2023/03/01 04:13:59;;;;;;;49.80;32.60;;;;;;;-0.68;100.00;98099.38;110149;1245;70603;-67
2023/03/01 04:16:28;;;;;;;47.20;31.70;;;;;;;-0.67;100.00;98099.52;110160;1253;69263;-67
2023/03/01 04:18:59;;;;;;;45.30;30.00;;;;;;;-0.64;100.00;98101.72;110104;1243;69847;-67
2023/03/01 04:21:29;;;;;;;54.30;34.00;;;;;;;-0.63;100.00;98100.84;110154;1251;58854;-67
2023/03/01 04:24:02;;;;;;;44.30;31.20;;;;;;;-0.63;100.00;98102.03;110158;1245;58903;-67
2023/03/01 04:26:32;;;;;;;41.00;29.80;;;;;;;-0.63;100.00;98099.80;110183;1245;69827;-67
2023/03/01 04:29:03;;;;;;;;;;;;;;;-0.62;100.00;98100.13;110190;1243;69199;-67
2023/03/01 04:31:33;;;;;;;47.60;29.70;;;;;;;-0.62;100.00;98099.95;110151;1245;69355;-67
2023/03/01 04:34:03;;;;;;;47.60;29.10;;;;;;;-0.60;100.00;98104.20;110173;1245;58925;-67
2023/03/01 04:36:35;;;;;;;48.20;31.20;;;;;;;-0.58;100.00;98106.23;110139;1241;58825;-67
2023/03/01 04:39:11;;;;;;;46.10;29.40;;;;;;;-0.57;100.00;98106.04;110131;1245;70521;-67
2023/03/01 04:41:43;;;;;;;45.70;29.70;;;;;;;-0.56;100.00;98105.14;110119;1244;68557;-67
2023/03/01 04:44:12;;;;;;;37.70;26.50;;;;;;;-0.56;100.00;98103.27;110143;1243;67462;-67
2023/03/01 04:46:42;;;;;;;45.00;29.50;;;;;;;-0.54;100.00;98104.62;110177;1245;58950;-67
2023/03/01 04:49:11;;;;;;;42.90;28.50;;;;;;;-0.53;100.00;98106.99;110138;1245;58937;-67
2023/03/01 04:51:40;;;;;;;47.90;30.70;;;;;;;-0.50;100.00;98108.48;110153;1241;71203;-67
2023/03/01 04:54:10;;;;;;;45.80;27.70;;;;;;;-0.47;100.00;98108.61;110170;1245;69051;-67
2023/03/01 04:56:39;;;;;;;41.60;25.70;;;;;;;-0.43;100.00;98111.96;110107;1244;69723;-67
2023/03/01 04:59:09;;;;;;;37.00;27.30;;;;;;;-0.40;100.00;98110.70;110162;1245;58912;-66
2023/03/01 05:01:39;;;;;;;47.80;32.20;;;;;;;-0.38;100.00;98111.34;110172;1243;58831;-66
2023/03/01 05:04:13;;;;;;;37.50;24.00;;;;;;;-0.36;100.00;98114.42;110190;1243;69767;-68
2023/03/01 05:06:42;;;;;;;41.40;29.00;;;;;;;-0.35;100.00;98114.73;110201;1241;69803;-70
2023/03/01 05:09:11;;;;;;;40.70;28.60;;;;;;;-0.34;100.00;98112.32;110171;1245;69899;-67
2023/03/01 05:11:40;;;;;;;37.50;27.10;;;;;;;-0.34;100.00;98118.63;110201;1243;58892;-67
2023/03/01 05:14:11;;;;;;;45.60;31.00;;;;;;;-0.33;100.00;98122.73;110168;1245;58830;-67
2023/03/01 05:16:40;;;;;;;44.20;29.80;;;;;;;-0.31;100.00;98124.42;110103;1245;71171;-66
2023/03/01 05:19:15;;;;;;;41.80;28.10;;;;;;;-0.29;100.00;98132.95;110148;1244;69079;-68
2023/03/01 05:24:34;;;;;;;46.00;32.10;;;;;;;-0.27;100.00;98134.11;110176;1243;58902;-66
2023/03/01 05:27:04;;;;;;;50.60;34.10;;;;;;;-0.25;100.00;98135.44;110180;1243;58883;-66
2023/03/01 05:29:34;;;;;;;48.20;33.70;;;;;;;-0.23;100.00;98134.90;110181;1244;70548;-66
2023/03/01 05:32:04;;;;;;;39.60;28.20;;;;;;;-0.22;100.00;98130.25;110152;1242;68488;-67
2023/03/01 05:34:36;;;;;;;42.40;28.80;;;;;;;-0.21;100.00;98134.16;110171;1247;69256;-67
2023/03/01 05:37:05;;;;;;;40.00;28.70;;;;;;;-0.20;100.00;98132.09;110166;1241;58866;-67
2023/03/01 05:39:34;;;;;;;47.30;32.10;;;;;;;-0.20;100.00;98133.47;110150;1245;58870;-67
2023/03/01 05:42:04;;;;;;;43.30;31.10;;;;;;;-0.24;100.00;98132.86;110149;1244;71147;-67
2023/03/01 05:44:33;;;;;;;45.30;31.50;;;;;;;-0.27;100.00;98134.97;110173;1242;68381;-67
2023/03/01 05:47:02;;;;;;;47.70;31.20;;;;;;;-0.30;100.00;98129.88;110166;1244;69301;-67
2023/03/01 05:49:32;;;;;;;45.00;28.90;;;;;;;-0.32;100.00;98136.09;110152;1245;58934;-67
2023/03/01 05:52:00;;;;;;;42.60;29.80;;;;;;;-0.38;100.00;98135.84;110134;1244;58908;-67
2023/03/01 05:54:29;;;;;;;42.00;30.70;;;;;;;-0.39;100.00;98137.76;110163;1243;70600;-67
2023/03/01 05:56:58;;;;;;;41.90;29.80;;;;;;;-0.41;100.00;98140.52;110129;1246;69789;-67
2023/03/01 05:59:27;;;;;;;44.50;29.00;;;;;;;-0.40;100.00;98141.04;110163;1244;68900;-67
2023/03/01 06:01:56;;;;;;;49.90;34.50;;;;;;;-0.40;100.00;98142.39;110252;1245;58953;-67
2023/03/01 06:04:25;;;;;;;49.00;32.30;;;;;;;-0.38;100.00;98144.22;110250;1241;58834;-67
2023/03/01 06:06:54;;;;;;;41.30;29.60;;;;;;;-0.36;100.00;98145.41;110236;1241;71150;-67
2023/03/01 06:09:25;;;;;;;39.30;27.20;;;;;;;-0.30;100.00;98144.27;110215;1243;69688;-67
2023/03/01 06:11:54;;;;;;;44.90;27.30;;;;;;;-0.11;100.00;98142.89;110144;1241;69858;-68
2023/03/01 06:14:23;;;;;;;38.30;25.20;;;;;;;0.17;100.00;98145.45;110206;1243;59014;-68
2023/03/01 06:16:52;;;;;;;39.00;25.60;;;;;;;0.50;100.00;98141.54;110157;1245;58904;-67
2023/03/01 06:19:21;;;;;;;31.30;22.80;;;;;;;0.74;100.00;98136.89;110142;1243;71383;-67
2023/03/01 06:21:50;;;;;;;30.50;22.30;;;;;;;0.94;100.00;98134.73;110137;1243;69205;-68
2023/03/01 06:24:19;;;;;;;32.80;24.20;;;;;;;1.15;100.00;98132.89;110127;1243;69861;-67
2023/03/01 06:26:48;;;;;;;28.20;22.00;;;;;;;1.32;100.00;98134.52;110118;1244;58940;-67
2023/03/01 06:29:17;;;;;;;28.10;21.80;;;;;;;1.55;99.89;98132.41;110179;1245;58885;-67
2023/03/01 06:31:46;;;;;;;39.20;30.00;;;;;;;1.84;99.68;98134.92;110127;1242;69960;-65
2023/03/01 06:34:15;;;;;;;40.00;30.10;;;;;;;2.23;100.00;98136.98;110127;1244;69196;-67
2023/03/01 06:36:46;;;;;;;43.50;31.90;;;;;;;2.50;98.32;98136.73;110148;1245;69317;-68
2023/03/01 06:39:16;;;;;;;34.10;28.00;;;;;;;2.73;96.57;98132.60;110133;1243;58940;-67
2023/03/01 06:41:46;;;;;;;32.60;26.10;;;;;;;3.00;94.26;98134.01;110130;1245;58874;-67
2023/03/01 06:44:16;;;;;;;32.90;26.40;;;;;;;3.25;91.95;98133.57;110195;1251;69597;-68
2023/03/01 06:46:45;;;;;;;36.80;29.30;;;;;;;3.48;90.12;98137.98;110198;1241;68535;-68
2023/03/01 06:49:15;;;;;;;34.20;28.50;;;;;;;3.77;90.24;98134.27;110151;1241;69276;-68
2023/03/01 06:51:46;;;;;;;32.00;27.50;;;;;;;4.12;86.60;98138.08;110171;1246;58859;-68
2023/03/01 06:54:17;;;;;;;30.90;25.10;;;;;;;4.45;84.35;98140.34;110145;1243;58878;-68
2023/03/01 06:56:49;;;;;;;30.10;22.60;;;;;;;4.80;83.97;98135.91;110171;1245;71144;-67
2023/03/01 06:59:19;;;;;;;21.10;17.00;;;;;;;5.32;85.55;98135.97;110142;1244;68606;-65
2023/03/01 07:01:48;;;;;;;20.60;16.50;;;;;;;5.78;82.85;98137.38;110109;1244;69146;-67
2023/03/01 07:04:17;;;;;;;19.30;14.30;;;;;;;6.22;80.98;98135.49;110169;1243;58950;-67
2023/03/01 07:06:54;;;;;;;20.00;16.60;;;;;;;6.38;75.01;98136.19;110128;1244;58834;-68
2023/03/01 07:09:23;;;;;;;18.70;14.50;;;;;;;6.51;74.76;98137.00;110168;1244;70453;-67
2023/03/01 07:11:54;;;;;;;17.70;15.80;;;;;;;6.70;75.44;98136.31;110182;1244;69033;-68
2023/03/01 07:14:27;;;;;;;21.20;17.80;;;;;;;6.89;75.34;98130.40;110147;1241;70229;-68
2023/03/01 07:16:56;;;;;;;28.20;24.10;;;;;;;6.91;71.64;98128.42;110183;1248;58880;-68
2023/03/01 07:19:26;;;;;;;27.00;23.80;;;;;;;7.36;74.44;98126.45;110166;1241;58911;-68
2023/03/01 07:21:55;;;;;;;26.30;23.50;;;;;;;7.63;73.46;98131.69;110202;1244;69647;-67
2023/03/01 07:24:25;;;;;;;26.90;23.20;;;;;;;7.91;76.49;98129.98;110129;1241;68977;-68
2023/03/01 07:26:53;;;;;;;23.10;20.30;;;;;;;8.16;72.45;98127.48;109900;1245;315541;-67
2023/03/01 07:29:22;;;;;;;23.20;18.50;;;;;;;7.93;68.30;98126.23;110149;1245;58954;-68
2023/03/01 07:31:51;;;;;;;19.10;17.00;;;;;;;7.71;67.26;98126.29;110185;1244;58943;-68
2023/03/01 07:34:20;;;;;;;22.10;19.10;;;;;;;8.43;72.73;98128.70;110155;1241;70985;-69
2023/03/01 07:36:49;;;;;;;21.30;18.50;;;;;;;8.58;66.18;98123.73;110170;1243;70028;-69
2023/03/01 07:39:18;;;;;;;20.90;16.90;;;;;;;9.03;68.75;98119.54;110124;1241;69797;-68
2023/03/01 07:41:47;;;;;;;17.60;14.80;;;;;;;9.47;66.61;98123.16;110135;1244;58858;-68
2023/03/01 07:44:22;;;;;;;19.50;16.40;;;;;;;9.77;62.26;98123.70;110147;1243;58910;-67
2023/03/01 07:46:55;;;;;;;40.10;30.50;;;;;;;9.86;60.93;98123.48;110137;1245;69857;-68
2023/03/01 07:49:26;;;;;;;29.30;25.70;;;;;;;9.81;60.32;98120.67;110160;1243;68467;-69
2023/03/01 07:51:55;;;;;;;;;;;;;;;9.98;61.60;98118.80;110155;1245;68604;-69
2023/03/01 07:54:24;;;;;;;17.50;15.20;;;;;;;9.76;59.40;98118.70;110136;1243;58949;-66
2023/03/01 07:56:54;;;;;;;18.00;15.30;;;;;;;9.43;60.53;98121.30;110147;1243;58865;-67
2023/03/01 07:59:28;;;;;;;16.70;14.20;;;;;;;8.99;61.47;98114.55;110142;1241;70345;-66
2023/03/01 08:01:57;;;;;;;15.50;12.80;;;;;;;9.24;60.88;98116.48;110169;1244;69202;-67
2023/03/01 08:04:27;;;;;;;14.70;13.10;;;;;;;9.80;61.14;98115.15;110116;1241;68485;-67
2023/03/01 08:06:56;;;;;;;15.00;13.10;;;;;;;10.06;58.54;98111.54;110137;1245;58963;-65
2023/03/01 08:09:25;;;;;;;16.10;13.80;;;;;;;10.34;58.94;98113.38;110151;1241;58897;-67
2023/03/01 08:11:59;;;;;;;23.90;17.20;;;;;;;10.58;59.07;98106.13;110160;1241;70302;-66
2023/03/01 08:14:28;;;;;;;34.10;26.30;;;;;;;10.50;57.37;98105.80;110166;1244;70006;-66
2023/03/01 08:16:56;;;;;;;21.10;18.20;;;;;;;10.69;57.17;98109.15;110134;1244;69256;-68
2023/03/01 08:19:27;;;;;;;24.00;20.40;;;;;;;10.40;57.39;98108.82;110143;1244;58953;-65
2023/03/01 08:21:58;;;;;;;26.00;22.20;;;;;;;10.17;58.20;98110.73;110159;1244;58896;-67
2023/03/01 08:24:27;;;;;;;21.20;18.90;;;;;;;10.37;57.53;98106.05;110200;1244;70592;-67
2023/03/01 08:26:56;;;;;;;20.10;16.80;;;;;;;10.72;58.26;98104.25;110185;1241;69290;-68
2023/03/01 08:29:25;;;;;;;20.90;17.80;;;;;;;10.93;56.33;98098.17;110190;1241;68524;-67
2023/03/01 08:31:54;;;;;;;20.60;17.00;;;;;;;10.93;55.67;98095.91;110195;1242;58937;-66
2023/03/01 08:34:23;;;;;;;19.10;17.00;;;;;;;11.03;55.62;98096.87;110188;1244;58888;-68
2023/03/01 08:36:52;;;;;;;19.50;17.50;;;;;;;11.23;54.62;98094.19;110174;1244;71027;-66
2023/03/01 08:39:21;;;;;;;18.40;16.20;;;;;;;11.45;53.55;98092.77;110186;1245;69234;-67
2023/03/01 08:41:50;;;;;;;21.20;17.20;;;;;;;11.55;53.08;98093.33;110166;1244;68849;-67
2023/03/01 08:44:20;;;;;;;20.00;17.80;;;;;;;11.40;54.40;98093.45;110107;1242;58952;-67
2023/03/01 08:46:51;;;;;;;22.00;19.10;;;;;;;12.18;54.39;98095.09;110111;1245;58942;-65
2023/03/01 08:49:20;;;;;;;18.30;16.30;;;;;;;12.70;51.98;98085.83;110132;1243;71170;-66
2023/03/01 08:51:49;;;;;;;19.00;17.10;;;;;;;12.76;50.92;98078.61;110131;1243;69815;-67
2023/03/01 08:54:20;;;;;;;20.70;18.60;;;;;;;12.53;50.50;98076.55;110158;1241;69476;-69
2023/03/01 08:56:50;;;;;;;19.30;17.00;;;;;;;12.63;50.85;98078.33;110351;1245;58923;-66
2023/03/01 08:59:19;;;;;;;19.20;17.20;;;;;;;13.18;49.36;98076.66;110266;1244;58900;-67
2023/03/01 09:01:48;;;;;;;16.90;14.90;;;;;;;12.99;49.85;98076.30;110189;1241;71150;-67
2023/03/01 09:04:16;;;;;;;16.50;14.90;;;;;;;13.16;50.31;98074.38;110191;1241;69128;-66
2023/03/01 09:06:46;;;;;;;15.60;13.90;;;;;;;13.18;49.43;98072.48;110136;1244;69139;-66
2023/03/01 09:09:17;;;;;;;13.90;11.80;;;;;;;13.23;49.32;98070.54;110127;1244;58923;-66
2023/03/01 09:11:46;;;;;;;16.20;14.50;;;;;;;13.43;49.49;98069.79;110134;1245;58816;-67
2023/03/01 09:14:15;;;;;;;14.90;13.20;;;;;;;13.80;47.80;98067.02;110142;1244;70567;-65
2023/03/01 09:16:43;;;;;;;16.40;13.00;;;;;;;13.90;47.82;98064.67;110113;1243;69066;-66
2023/03/01 09:19:14;;;;;;;15.70;13.40;;;;;;;14.14;46.87;98062.31;110161;1243;68507;-66
2023/03/01 09:21:52;;;;;;;22.50;19.00;;;;;;;14.32;46.67;98060.20;110195;1242;58881;-64
2023/03/01 09:24:23;;;;;;;26.50;20.00;;;;;;;14.50;46.19;98057.73;110166;1244;58830;-66
2023/03/01 09:26:55;;;;;;;22.60;18.00;;;;;;;14.32;46.36;98048.11;110154;1248;70580;-66
2023/03/01 09:29:25;;;;;;;24.80;21.20;;;;;;;14.51;46.68;98047.36;110188;1242;69256;-66
2023/03/01 09:31:54;;;;;;;26.50;21.80;;;;;;;14.34;46.61;98042.48;110157;1244;69371;-65
2023/03/01 09:34:24;;;;;;;22.90;19.70;;;;;;;14.15;47.55;98042.09;110166;1243;58982;-67
2023/03/01 09:36:53;;;;;;;22.10;18.50;;;;;;;14.54;47.37;98036.09;110136;1243;58866;-65
2023/03/01 09:39:22;;;;;;;21.90;18.10;;;;;;;14.45;46.96;98030.60;110171;1241;69854;-66
2023/03/01 09:42:04;;;;;;;22.60;19.10;;;;;;;15.02;45.76;98028.52;110147;1243;68863;-66
2023/03/01 09:45:00;;;;;;;21.60;19.00;;;;;;;15.53;44.50;98026.59;110123;1245;68459;-66
2023/03/01 09:47:36;;;;;;;23.10;18.70;;;;;;;15.73;44.59;98025.66;110134;1243;58941;-67
2023/03/01 09:50:18;;;;;;;20.20;18.00;;;;;;;16.35;43.96;98022.14;110084;1244;58843;-68
2023/03/01 09:53:09;;;;;;;22.30;20.00;;;;;;;16.26;42.77;98019.60;110160;1241;70607;-67
2023/03/01 09:55:54;;;;;;;21.00;18.20;;;;;;;16.30;42.15;98018.54;110130;1244;68842;-67
2023/03/01 09:58:47;;;;;;;20.80;18.50;;;;;;;16.26;43.23;98016.88;110086;1248;69183;-65
2023/03/01 10:01:35;;;;;;;19.50;16.90;;;;;;;16.88;42.76;98009.62;110158;1241;58908;-65
2023/03/01 10:04:49;;;;;;;20.50;18.30;;;;;;;17.28;41.03;98006.65;110121;1243;58953;-66
2023/03/01 10:07:38;;;;;;;20.20;18.10;;;;;;;17.22;40.49;98004.62;109508;1251;70507;-65
2023/03/01 10:10:14;;;;;;;21.00;17.20;;;;;;;17.26;39.66;98002.98;109311;1251;69861;-65
2023/03/01 10:12:44;;;;;;;19.40;17.30;;;;;;;17.11;41.09;98007.30;109969;1243;69305;-64
2023/03/01 10:15:18;;;;;;;17.80;16.00;;;;;;;17.57;40.15;98007.05;110163;1241;58857;-64
2023/03/01 10:17:55;;;;;;;18.70;16.60;;;;;;;17.79;39.73;97997.80;110148;1244;58932;-67
2023/03/01 10:20:29;;;;;;;17.40;15.30;;;;;;;17.87;38.73;97989.82;110163;1244;69826;-64
2023/03/01 10:22:58;;;;;;;17.90;16.00;;;;;;;17.90;38.51;97988.64;110165;1243;69747;-67
2023/03/01 10:25:27;;;;;;;16.80;15.10;;;;;;;18.39;38.24;97986.48;110177;1241;69059;-67
2023/03/01 10:28:06;;;;;;;15.20;13.60;;;;;;;17.49;38.13;97991.39;110139;1241;58999;-66
2023/03/01 10:30:41;;;;;;;13.70;11.60;;;;;;;17.55;39.06;97985.72;110234;1241;58876;-67
2023/03/01 10:33:32;;;;;;;9.70;8.50;;;;;;;18.19;38.40;97977.25;110223;1244;71166;-67
2023/03/01 10:36:01;;;;;;;9.60;8.50;;;;;;;18.94;37.39;97976.05;110164;1241;68465;-66
2023/03/01 10:38:48;;;;;;;9.30;8.10;;;;;;;19.49;37.19;97973.36;110196;1241;69899;-67
2023/03/01 10:41:16;;;;;;;9.00;8.00;;;;;;;20.04;35.81;97968.04;110163;1244;58874;-67
2023/03/01 10:43:59;;;;;;;7.40;6.60;;;;;;;20.64;33.98;97968.71;110171;1244;58918;-67
2023/03/01 10:46:30;;;;;;;7.40;6.60;;;;;;;21.03;33.00;97970.61;110159;1244;69671;-68
2023/03/01 10:49:22;;;;;;;8.50;6.30;;;;;;;21.54;32.29;97969.73;110151;1244;69762;-68
2023/03/01 10:51:52;;;;;;;7.90;6.90;;;;;;;21.22;32.27;97962.38;110151;1244;69764;-68
2023/03/01 10:54:31;;;;;;;7.30;6.10;;;;;;;21.16;32.12;97958.27;110183;1241;59010;-67
2023/03/01 10:57:04;;;;;;;7.40;6.70;;;;;;;20.54;32.18;97949.02;110177;1245;59002;-67
2023/03/01 10:59:35;;;;;;;7.80;6.80;;;;;;;19.85;33.09;97953.54;110196;1241;71169;-68
2023/03/01 11:02:17;;;;;;;6.60;4.70;;;;;;;19.47;33.93;97951.33;110157;1244;69715;-67
2023/03/01 11:05:30;;;;;;;6.10;3.80;;;;;;;19.08;34.49;97946.55;110191;1244;69848;-68
2023/03/01 11:08:01;;;;;;;5.40;4.90;;;;;;;18.01;35.78;97940.48;110059;1244;59291;-68
2023/03/01 11:10:36;;;;;;;6.60;4.30;;;;;;;18.18;36.32;97937.16;110185;1241;58895;-66
2023/03/01 11:13:12;;;;;;;6.60;5.20;;;;;;;18.37;35.55;97932.84;110192;1244;71035;-67
2023/03/01 11:15:42;;;;;;;7.60;6.10;;;;;;;17.92;36.35;97932.69;110157;1244;69215;-66
2023/03/01 11:18:22;;;;;;;5.80;4.80;;;;;;;16.99;36.48;97930.91;110093;1243;69865;-67
2023/03/01 11:21:08;;;;;;;8.20;5.40;;;;;;;16.50;37.88;97931.44;110117;1244;58998;-67
2023/03/01 11:23:39;;;;;;;8.50;7.40;;;;;;;17.16;38.56;97934.01;110134;1245;58882;-67
2023/03/01 11:26:09;;;;;;;8.30;6.70;;;;;;;17.61;37.95;97926.85;110135;1242;70366;-66
2023/03/01 11:28:42;;;;;;;7.20;6.40;;;;;;;18.69;37.58;97917.90;110155;1244;69809;-66
2023/03/01 11:31:13;;;;;;;8.60;7.20;;;;;;;19.41;36.05;97915.73;110155;1243;70015;-68
2023/03/01 11:33:55;;;;;;;6.60;5.60;;;;;;;19.44;35.77;97908.89;110174;1244;58834;-68
2023/03/01 11:36:42;;;;;;;7.80;6.70;;;;;;;19.24;34.14;97904.23;110199;1241;58922;-68